Hebron, North Dakota
Current Conditions -  °F | °C
As of 3:35 PM on Saturday 25 Oct 2014 (Local Time) from KD57 Reporting Station
Clear Clear  
Wind Chill: 64°   Ceiling: Unl
Heat Index: 64°   Visibility: 10mi
Dew Point: 27°   Wind: 10mph
Humidity: 24%   Direction: 140°SE
Pressure: 30.02"   Gusts: NA
Location:  46.9°N, 102.05°W
Report Text: KD57 252135Z AUTO 14009KT 10SM CLR 18/M03 A3002 RMK AO2 TSNO
Loading
Personal Weather Stations






























Interactive Weather Map
Tropical Storm Tracking
New forecast layout! Learn more

10-Day Weather Forecast

Advertisements
Track Severe Weather on mobile